createdAt,value
2023-11-23T00:01:26.100Z,4.17
2023-11-23T00:06:29.661Z,4.17
2023-11-23T00:11:32.997Z,4.22
2023-11-23T00:16:37.980Z,4.22
2023-11-23T00:21:41.208Z,4.26
2023-11-23T00:26:45.186Z,4.26
2023-11-23T00:31:49.939Z,4.29
2023-11-23T00:36:53.456Z,4.30
2023-11-23T00:41:56.739Z,4.38
2023-11-23T00:47:01.731Z,4.46
2023-11-23T00:52:05.667Z,4.49
2023-11-23T00:57:09.237Z,4.54
2023-11-23T01:02:14.381Z,4.56
2023-11-23T01:07:18.573Z,4.60
2023-11-23T01:12:22.361Z,4.64
2023-11-23T01:17:29.284Z,4.71
2023-11-23T01:22:32.609Z,4.72
2023-11-23T01:27:56.326Z,4.76
2023-11-23T01:33:03.006Z,4.84
2023-11-23T01:38:06.404Z,4.87
2023-11-23T01:43:11.232Z,4.91
2023-11-23T01:48:17.344Z,5.01
2023-11-23T01:53:41.812Z,5.09
2023-11-23T01:59:07.108Z,5.12
2023-11-23T02:04:31.925Z,5.14
2023-11-23T02:09:35.410Z,5.19
2023-11-23T02:14:39.485Z,5.24
2023-11-23T02:19:44.848Z,5.29
2023-11-23T02:24:49.743Z,5.31
2023-11-23T02:30:14.513Z,5.36
2023-11-23T02:35:38.074Z,5.34
2023-11-23T02:40:43.063Z,5.38
2023-11-23T02:45:47.289Z,5.37
2023-11-23T02:50:50.682Z,5.43
2023-11-23T02:55:55.559Z,5.42
2023-11-23T03:00:58.935Z,5.39
2023-11-23T03:06:02.710Z,5.41
2023-11-23T03:11:07.712Z,5.49
2023-11-23T03:16:11.179Z,5.44
2023-11-23T03:21:14.905Z,5.49
2023-11-23T03:26:19.577Z,5.51
2023-11-23T03:31:22.730Z,5.52
2023-11-23T03:36:26.036Z,5.51
2023-11-23T03:41:30.724Z,5.61
2023-11-23T03:46:33.988Z,5.66
2023-11-23T03:51:37.819Z,5.68
2023-11-23T03:56:42.797Z,5.72
2023-11-23T04:01:47.180Z,5.76
2023-11-23T04:06:50.450Z,5.80
2023-11-23T04:11:55.462Z,5.86
2023-11-23T04:16:58.708Z,5.91
2023-11-23T04:22:01.909Z,5.99
2023-11-23T04:27:06.854Z,6.03
2023-11-23T04:32:12.259Z,6.03
2023-11-23T04:37:15.411Z,6.08
2023-11-23T04:42:20.194Z,6.12
2023-11-23T04:47:24.396Z,6.13
2023-11-23T04:52:27.723Z,6.15
2023-11-23T04:57:33.207Z,6.19
2023-11-23T05:02:36.624Z,6.23
2023-11-23T05:07:42.706Z,6.26
2023-11-23T05:12:47.500Z,6.30
2023-11-23T05:17:50.867Z,6.33
2023-11-23T05:22:54.072Z,6.37
2023-11-23T05:27:59.024Z,6.44
2023-11-23T05:33:03.045Z,6.51
2023-11-23T05:38:06.281Z,6.54
2023-11-23T05:43:10.974Z,6.59
2023-11-23T05:48:14.412Z,6.65
2023-11-23T05:53:17.761Z,6.85
2023-11-23T05:58:22.473Z,7.05
2023-11-23T06:03:26.485Z,7.22
2023-11-23T06:08:30.057Z,7.18
2023-11-23T06:13:37.865Z,7.10
2023-11-23T06:18:44.479Z,7.09
2023-11-23T06:23:50.342Z,7.12
2023-11-23T06:28:55.100Z,7.08
2023-11-23T06:33:58.366Z,7.10
2023-11-23T06:39:02.180Z,7.10
2023-11-23T06:44:07.978Z,7.15
2023-11-23T06:49:12.016Z,7.20
2023-11-23T06:54:15.398Z,7.22
2023-11-23T06:59:20.773Z,7.26
2023-11-23T07:04:27.369Z,7.30
2023-11-23T07:09:30.631Z,7.33
2023-11-23T07:14:35.429Z,7.37
2023-11-23T07:19:39.069Z,7.42
2023-11-23T07:24:42.797Z,7.51
2023-11-23T07:29:47.475Z,7.56
2023-11-23T07:34:50.760Z,7.61
2023-11-23T07:39:54.177Z,7.66
2023-11-23T07:44:59.292Z,7.78
2023-11-23T07:50:02.748Z,7.87
2023-11-23T07:55:07.182Z,7.90
2023-11-23T08:00:14.560Z,7.96
2023-11-23T08:05:19.041Z,7.96
2023-11-23T08:10:22.337Z,7.96
2023-11-23T08:15:27.368Z,7.95
2023-11-23T08:20:30.545Z,7.99
2023-11-23T08:25:33.767Z,7.97
2023-11-23T08:30:40.160Z,7.96
2023-11-23T08:35:43.932Z,7.99
2023-11-23T08:40:47.963Z,8.03
2023-11-23T08:45:52.574Z,8.07
2023-11-23T08:50:56.061Z,8.11
2023-11-23T08:55:59.411Z,8.19
2023-11-23T09:01:04.255Z,8.28
2023-11-23T09:06:09.517Z,8.32
2023-11-23T09:11:12.798Z,8.41
2023-11-23T09:16:17.587Z,8.47
2023-11-23T09:21:21.040Z,8.55
2023-11-23T09:26:24.966Z,8.60
2023-11-23T09:31:32.471Z,8.67
2023-11-23T09:36:35.936Z,8.74
2023-11-23T09:41:43.409Z,8.82
2023-11-23T09:46:48.979Z,8.87
2023-11-23T09:51:56.628Z,8.92
2023-11-23T09:57:02.150Z,8.94
2023-11-23T10:02:11.010Z,9.01
2023-11-23T10:07:17.256Z,9.02
2023-11-23T10:12:23.104Z,9.08
2023-11-23T10:17:31.366Z,9.18
2023-11-23T10:22:34.755Z,9.23
2023-11-23T10:27:38.988Z,9.33
2023-11-23T10:32:46.900Z,9.42
2023-11-23T10:37:56.006Z,9.48
2023-11-23T10:43:02.427Z,9.56
2023-11-23T10:48:18.530Z,9.61
2023-11-23T10:53:34.602Z,9.67
2023-11-23T10:58:39.715Z,9.68
2023-11-23T11:03:46.257Z,9.74
2023-11-23T11:08:50.804Z,9.86
2023-11-23T11:14:02.463Z,9.96
2023-11-23T11:19:09.125Z,9.97
2023-11-23T11:24:22.886Z,10.08
2023-11-23T11:29:26.928Z,10.17
2023-11-23T11:34:35.722Z,10.22
2023-11-23T11:39:41.129Z,10.29
2023-11-23T11:44:46.624Z,10.32
2023-11-23T11:49:53.424Z,10.35
2023-11-23T11:54:57.269Z,10.36
2023-11-23T12:00:02.180Z,10.36
2023-11-23T12:05:13.527Z,10.41
2023-11-23T12:10:16.905Z,10.42
2023-11-23T12:15:20.631Z,10.42
2023-11-23T12:20:25.807Z,10.46
2023-11-23T12:25:33.222Z,10.47
2023-11-23T12:30:36.811Z,10.47
2023-11-23T12:35:41.817Z,10.50
2023-11-23T12:40:45.810Z,10.49
2023-11-23T12:45:49.089Z,10.49
2023-11-23T12:50:53.830Z,10.52
2023-11-23T12:55:57.225Z,10.54
2023-11-23T13:01:00.830Z,10.59
2023-11-23T13:06:05.850Z,10.61
2023-11-23T13:11:09.185Z,10.61
2023-11-23T13:16:12.416Z,10.65
2023-11-23T13:21:21.016Z,10.68
2023-11-23T13:26:24.744Z,10.70
2023-11-23T13:31:28.661Z,10.68
2023-11-23T13:36:35.924Z,10.69
2023-11-23T13:41:39.389Z,10.66
2023-11-23T13:46:44.393Z,10.62
2023-11-23T13:51:49.203Z,10.64
2023-11-23T13:56:53.104Z,10.67
2023-11-23T14:01:56.555Z,10.71
2023-11-23T14:07:01.860Z,10.72
2023-11-23T14:12:05.640Z,10.71
2023-11-23T14:17:10.335Z,10.71
2023-11-23T14:22:17.910Z,10.74
2023-11-23T14:27:21.835Z,10.72
2023-11-23T14:32:25.494Z,10.71
2023-11-23T14:37:30.821Z,10.68
2023-11-23T14:42:41.442Z,10.64
2023-11-23T14:47:47.529Z,10.65
2023-11-23T14:52:53.851Z,10.58
2023-11-23T14:57:58.581Z,10.58
2023-11-23T15:03:03.727Z,10.58
2023-11-23T15:08:09.796Z,10.55
2023-11-23T15:13:23.362Z,10.55
2023-11-23T15:18:34.659Z,10.50
2023-11-23T15:23:39.378Z,10.51
2023-11-23T15:28:44.214Z,10.49
2023-11-23T15:33:48.771Z,10.45
2023-11-23T15:38:53.426Z,10.44
2023-11-23T15:43:56.655Z,10.46
2023-11-23T15:48:59.945Z,10.44
2023-11-23T15:54:05.468Z,10.49
2023-11-23T15:59:09.388Z,10.46
2023-11-23T16:04:13.406Z,10.40
2023-11-23T16:09:20.754Z,10.39
2023-11-23T16:14:25.260Z,10.40
2023-11-23T16:19:28.979Z,10.45
2023-11-23T16:24:33.994Z,10.45
2023-11-23T16:29:40.545Z,10.42
2023-11-23T16:34:44.297Z,10.44
2023-11-23T16:39:50.385Z,10.48
2023-11-23T16:44:54.030Z,10.51
2023-11-23T16:49:58.781Z,10.55
2023-11-23T16:55:04.201Z,10.59
2023-11-23T17:00:12.569Z,10.62
2023-11-23T17:05:16.707Z,10.61
2023-11-23T17:10:24.312Z,10.60
2023-11-23T17:15:27.516Z,10.52
2023-11-23T17:20:31.312Z,10.49
2023-11-23T17:25:40.297Z,10.59
2023-11-23T17:30:43.728Z,10.67
2023-11-23T17:35:47.444Z,10.74
2023-11-23T17:40:52.324Z,10.81
2023-11-23T17:45:56.304Z,10.84
2023-11-23T17:51:00.559Z,10.86
2023-11-23T17:56:07.044Z,10.90
2023-11-23T18:01:11.309Z,10.90
2023-11-23T18:06:15.955Z,10.92
2023-11-23T18:11:21.817Z,10.96
2023-11-23T18:16:25.266Z,10.98
2023-11-23T18:21:28.508Z,11.05
2023-11-23T18:26:33.316Z,11.10
2023-11-23T18:31:49.544Z,11.16
2023-11-23T18:36:57.295Z,11.21
2023-11-23T18:42:06.345Z,11.25
2023-11-23T18:47:15.458Z,11.29
2023-11-23T18:52:20.398Z,11.29
2023-11-23T18:57:25.201Z,11.29
2023-11-23T19:02:29.009Z,11.30
2023-11-23T19:07:32.621Z,11.30
2023-11-23T19:12:38.468Z,11.35
2023-11-23T19:17:45.335Z,11.35
2023-11-23T19:22:51.790Z,11.41
2023-11-23T19:27:57.054Z,11.50
2023-11-23T19:33:06.412Z,11.52
2023-11-23T19:38:10.165Z,11.56
2023-11-23T19:43:16.622Z,11.58
2023-11-23T19:48:21.054Z,11.61
2023-11-23T19:53:28.005Z,11.63
2023-11-23T19:58:33.244Z,11.68
2023-11-23T20:03:38.472Z,11.70
2023-11-23T20:08:44.547Z,11.71
2023-11-23T20:13:49.537Z,11.69
2023-11-23T20:18:52.806Z,11.63
2023-11-23T20:23:59.073Z,11.59
2023-11-23T20:29:03.919Z,11.54
2023-11-23T20:34:08.633Z,11.44
2023-11-23T20:39:16.141Z,11.44
2023-11-23T20:44:28.408Z,11.47
2023-11-23T20:49:32.657Z,11.53
2023-11-23T20:54:36.102Z,11.56
2023-11-23T20:59:41.383Z,11.60
2023-11-23T21:04:45.265Z,11.57
2023-11-23T21:09:51.044Z,11.57
2023-11-23T21:14:55.871Z,11.60
2023-11-23T21:19:59.149Z,11.57
2023-11-23T21:25:02.321Z,11.58
2023-11-23T21:30:09.481Z,11.66
2023-11-23T21:35:13.282Z,11.67
2023-11-23T21:40:17.109Z,11.72
2023-11-23T21:45:22.336Z,11.71
2023-11-23T21:50:25.801Z,11.61
2023-11-23T21:55:30.913Z,11.58
2023-11-23T22:00:35.734Z,11.58
2023-11-23T22:05:38.877Z,11.57
2023-11-23T22:10:43.222Z,11.48
2023-11-23T22:15:48.128Z,11.46
2023-11-23T22:20:51.671Z,11.37
2023-11-23T22:25:56.006Z,11.07
2023-11-23T22:31:03.729Z,10.97
2023-11-23T22:36:08.067Z,10.78
2023-11-23T22:41:12.209Z,10.72
2023-11-23T22:46:19.202Z,10.66
2023-11-23T22:51:22.533Z,10.65
2023-11-23T22:56:25.930Z,10.60
2023-11-23T23:01:30.592Z,10.58
2023-11-23T23:06:34.323Z,10.50
2023-11-23T23:11:37.511Z,10.48
2023-11-23T23:16:42.172Z,10.41
2023-11-23T23:21:45.931Z,10.37
2023-11-23T23:26:49.507Z,10.29
2023-11-23T23:31:55.282Z,10.19
2023-11-23T23:36:58.829Z,10.11
2023-11-23T23:42:02.931Z,10.03
2023-11-23T23:47:08.883Z,9.96
2023-11-23T23:52:12.296Z,9.88
2023-11-23T23:57:15.475Z,9.82
